M I D A S
Marine Information and Data Acquisition System
Tripno 1697 of the Zeeleeuw from 2009-05-20 04:33:05 to 2009-05-20 14:30:48
Back to CruiseResearch ActivitiesStationsMapUnderway DataData graphs

EquipmentUnitsComment
TimeDGPSUTC
LatitudeDGPSDM.mWGS84
LongitudeDGPSDM.mWGS84
HeadingGyrodeg 
SOGDGPSknotsSpeed over ground
COGDGPSdegCourse over ground
DepthEcho soundermeters200 kHz
Missing or incorrect values are displayed as -999
Navigation data collected by the RV Zeeleeuw from 2009-05-20 04:02:50 to 2009-05-20 14:39:44
Time Latitude Longitude Heading SOG COG Depth
2009-05-20 04:03:53 51°13.664 2°55.959 126.9 -999 43 4.5
2009-05-20 04:04:53 51°13.663 2°55.96 126.9 -999 215 4.6
2009-05-20 04:05:53 51°13.663 2°55.96 127 -999 248 4.5
2009-05-20 04:06:53 51°13.663 2°55.96 126.9 -999 52 4.6
2009-05-20 04:07:53 51°13.663 2°55.959 126.9 -999 184 4.5
2009-05-20 04:08:53 51°13.662 2°55.96 126.9 0.1 35 4.6
2009-05-20 04:09:53 51°13.661 2°55.959 127 -999 49 4.6
2009-05-20 04:10:53 51°13.662 2°55.96 127.3 -999 171 4.6
2009-05-20 04:11:53 51°13.664 2°55.959 127 -999 92 4.6
2009-05-20 04:12:53 51°13.663 2°55.959 127.2 0.1 205 4.6
2009-05-20 04:13:53 51°13.663 2°55.959 128.6 0.1 42 4.6
2009-05-20 04:14:53 51°13.663 2°55.959 129 0.1 246 4.6
2009-05-20 04:15:55 51°13.663 2°55.959 125.3 0.1 49 4.7
2009-05-20 04:16:55 51°13.663 2°55.96 119.5 -999 110 4.7
2009-05-20 04:17:56 51°13.662 2°55.959 112.6 0.1 286 -999
2009-05-20 04:18:56 51°13.677 2°55.906 111.8 3.4 293 -999
2009-05-20 04:19:56 51°13.694 2°55.823 99.4 3.2 283 -999
2009-05-20 04:20:56 51°13.7 2°55.756 82.1 0.7 298 12
2009-05-20 04:21:54 51°13.711 2°55.756 22.7 0.5 246 12.3
2009-05-20 04:22:52 51°13.716 2°55.743 342.5 1.6 332 11.2
2009-05-20 04:23:52 51°13.747 2°55.708 323.8 2.7 322 10.3
2009-05-20 04:24:51 51°13.786 2°55.661 329.6 3.2 328 9.7
2009-05-20 04:25:53 51°13.837 2°55.635 354 2.8 349 9.3
2009-05-20 04:26:51 51°13.878 2°55.632 8.4 2.3 3 8.8
2009-05-20 04:27:53 51°13.916 2°55.638 11.1 2.2 6 9.6
2009-05-20 04:28:51 51°13.949 2°55.637 355 1.9 353 10
2009-05-20 04:29:51 51°13.959 2°55.635 345.1 0.6 156 10
2009-05-20 04:30:52 51°13.96 2°55.634 340.9 1.6 337 10.1
2009-05-20 04:31:51 51°14.025 2°55.558 319.8 7.4 319 10.1
2009-05-20 04:32:51 51°14.135 2°55.418 327.1 8.8 325 9.8
2009-05-20 04:33:51 51°14.248 2°55.269 318.4 9 315 9.7
2009-05-20 04:34:53 51°14.354 2°55.064 304.7 10.4 304 9.7
2009-05-20 04:35:52 51°14.457 2°54.829 310.8 11.5 306 9.7
2009-05-20 04:36:53 51°14.571 2°54.57 307 12 301 9.6
2009-05-20 04:37:51 51°14.669 2°54.302 305.5 12.1 299 9.6
2009-05-20 04:38:53 51°14.759 2°54.001 299.8 12.2 295 9.4
2009-05-20 04:39:51 51°14.832 2°53.711 293.7 12.2 288 9.4
2009-05-20 04:40:51 51°14.896 2°53.403 293.7 12.3 289 9.5
2009-05-20 04:41:53 51°14.958 2°53.083 291.3 12.2 287 9.6
2009-05-20 04:42:51 51°15.017 2°52.786 292.6 12.1 287 9.9
2009-05-20 04:43:53 51°15.081 2°52.469 292.8 12.1 288 10.1
2009-05-20 04:44:51 51°15.149 2°52.177 299.2 12.1 294 10.5
2009-05-20 04:45:53 51°15.237 2°51.876 300.2 12.2 295 11.1
2009-05-20 04:46:51 51°15.304 2°51.583 286.6 12.3 281 11.7
2009-05-20 04:47:53 51°15.317 2°51.245 273.2 12.5 270 12.1
2009-05-20 04:48:51 51°15.309 2°50.925 271.5 12.5 269 12.2
2009-05-20 04:49:51 51°15.309 2°50.594 274.7 12.5 271 12.4
2009-05-20 04:50:53 51°15.311 2°50.25 274.2 12.5 270 12.5
2009-05-20 04:51:52 51°15.311 2°49.924 274.6 12.4 271 12.6
2009-05-20 04:52:53 51°15.308 2°49.589 272 12.4 268 12.5
2009-05-20 04:53:52 51°15.305 2°49.267 273.2 12.3 270 12.6
2009-05-20 04:54:52 51°15.303 2°48.944 271.4 12.1 268 12.7
2009-05-20 04:55:52 51°15.295 2°48.621 271.4 12.2 268 12.5
2009-05-20 04:56:52 51°15.286 2°48.3 270.7 12.1 267 10.8
2009-05-20 04:57:52 51°15.273 2°47.983 270.6 12 267 9.7
2009-05-20 04:58:52 51°15.262 2°47.667 270.7 12 266 9.4
2009-05-20 04:59:53 51°15.24 2°47.345 267.2 11.9 263 9.7
2009-05-20 05:00:52 51°15.213 2°47.034 265.4 12 263 10.2
2009-05-20 05:01:53 51°15.186 2°46.712 265.3 12 262 11
2009-05-20 05:02:52 51°15.163 2°46.398 268.4 12.2 265 12
2009-05-20 05:03:52 51°15.146 2°46.077 268.4 12.2 265 13.2
2009-05-20 05:04:55 51°15.125 2°45.737 267.9 12.3 264 -999
2009-05-20 05:05:56 51°15.105 2°45.407 267.5 12.2 264 -999
2009-05-20 05:06:56 51°15.083 2°45.083 266.8 12.3 264 -999
2009-05-20 05:07:56 51°15.058 2°44.757 266.5 12.3 264 -999
2009-05-20 05:08:56 51°15.038 2°44.43 268.3 12.5 265 -999
2009-05-20 05:09:56 51°15.019 2°44.102 267.4 12.4 264 -999
2009-05-20 05:10:56 51°14.994 2°43.778 265.7 12.2 263 -999
2009-05-20 05:11:56 51°14.974 2°43.458 268.5 12.1 265 -999
2009-05-20 05:12:56 51°14.954 2°43.139 267.7 12.1 264 -999
2009-05-20 05:13:54 51°14.933 2°42.832 267.8 12 263 12.2
2009-05-20 05:14:52 51°14.909 2°42.527 267.3 12 264 13.4
2009-05-20 05:15:53 51°14.888 2°42.205 268.4 12 265 12.7
2009-05-20 05:16:51 51°14.868 2°41.899 267.3 11.9 264 13.4
2009-05-20 05:17:53 51°14.846 2°41.573 266.9 11.9 264 13.1
2009-05-20 05:18:52 51°14.827 2°41.264 267.9 11.9 264 13.4
2009-05-20 05:19:53 51°14.805 2°40.947 264.3 11.8 257 13.1
2009-05-20 05:20:52 51°14.747 2°40.652 252.7 11.9 250 12.6
2009-05-20 05:21:52 51°14.679 2°40.355 253.4 11.9 251 12.5
2009-05-20 05:22:51 51°14.614 2°40.062 253 11.8 249 13.2
2009-05-20 05:23:53 51°14.545 2°39.755 254.1 12 251 13.6
2009-05-20 05:24:53 51°14.478 2°39.457 253.4 11.9 250 14.1
2009-05-20 05:25:52 51°14.412 2°39.163 253.6 12 250 15.1
2009-05-20 05:26:53 51°14.341 2°38.859 251.2 12 249 17
2009-05-20 05:27:52 51°14.272 2°38.563 252.2 12.1 250 17
2009-05-20 05:28:52 51°14.203 2°38.261 252.7 12.1 251 18.4
2009-05-20 05:29:52 51°14.14 2°37.956 251.4 12.1 249 19.4
2009-05-20 05:30:53 51°14.058 2°37.655 247.6 12.1 246 20.3
2009-05-20 05:31:53 51°13.974 2°37.363 245.8 12.1 245 20.6
2009-05-20 05:32:52 51°13.891 2°37.078 245.6 12 245 20.9
2009-05-20 05:33:53 51°13.805 2°36.783 247.6 12.1 247 20.3
2009-05-20 05:34:52 51°13.726 2°36.495 245.4 12 245 20.4
2009-05-20 05:35:53 51°13.634 2°36.205 244 12 244 18.5
2009-05-20 05:36:52 51°13.546 2°35.924 244.3 12 244 17.9
2009-05-20 05:37:53 51°13.456 2°35.634 244.4 12.1 243 17.9
2009-05-20 05:38:53 51°13.362 2°35.353 242.9 12 242 17.4
2009-05-20 05:39:52 51°13.271 2°35.078 243.7 12 243 17.1
2009-05-20 05:40:53 51°13.179 2°34.791 243.2 12 242 17.7
2009-05-20 05:41:53 51°13.088 2°34.511 243.8 11.9 243 17.4
2009-05-20 05:42:53 51°12.998 2°34.23 244.3 11.9 242 17.1
2009-05-20 05:43:52 51°12.924 2°33.992 246.4 7.8 244 16.7
2009-05-20 05:44:53 51°12.875 2°33.862 236.6 4.3 234 16.3
2009-05-20 05:45:52 51°12.84 2°33.794 233.1 2.9 230 16
2009-05-20 05:46:53 51°12.822 2°33.736 264.1 2 254 15.9
2009-05-20 05:47:52 51°12.803 2°33.674 243.5 3.8 240 15.8
2009-05-20 05:48:53 51°12.774 2°33.558 254.4 5 249 16
2009-05-20 05:49:53 51°12.741 2°33.439 252.2 4.8 250 16.8
2009-05-20 05:50:52 51°12.72 2°33.334 253.7 3.8 248 19.7
2009-05-20 05:51:53 51°12.693 2°33.262 238.7 2.6 232 18.5
2009-05-20 05:52:52 51°12.669 2°33.222 228.7 1.9 219 15.3
2009-05-20 05:53:53 51°12.645 2°33.194 229.9 1.7 221 15.3
2009-05-20 05:54:52 51°12.633 2°33.145 281.9 1.9 276 15.4
2009-05-20 05:55:53 51°12.64 2°33.116 319.9 0.3 152 15.9
2009-05-20 05:56:53 51°12.636 2°33.124 349.8 0.8 13 15.6
2009-05-20 05:57:53 51°12.659 2°33.149 42 2 50 15.9
2009-05-20 05:58:53 51°12.678 2°33.199 53.6 2.2 62 15.7
2009-05-20 05:59:52 51°12.695 2°33.25 52.1 2.2 61 18.8
2009-05-20 06:00:53 51°12.71 2°33.306 67.3 2.2 75 20
2009-05-20 06:01:52 51°12.718 2°33.362 73.7 2.2 80 17.7
2009-05-20 06:02:53 51°12.723 2°33.421 77.2 2.2 83 16.7
2009-05-20 06:03:52 51°12.733 2°33.483 51.9 2.5 60 16.6
2009-05-20 06:04:53 51°12.771 2°33.512 348.8 3.1 350 16.5
2009-05-20 06:05:53 51°12.803 2°33.441 278.7 3.5 274 16.3
2009-05-20 06:06:53 51°12.784 2°33.367 235.5 2.9 230 16.3
2009-05-20 06:07:52 51°12.753 2°33.324 223.6 2.2 217 16.9
2009-05-20 06:08:52 51°12.723 2°33.298 215.1 1.9 205 18.5
2009-05-20 06:09:53 51°12.696 2°33.282 215.7 1.6 197 19.3
2009-05-20 06:10:52 51°12.676 2°33.269 228 1.2 207 14.8
2009-05-20 06:11:53 51°12.662 2°33.256 242.4 0.7 218 15.5
2009-05-20 06:12:53 51°12.656 2°33.244 259.4 0.6 246 15.6
2009-05-20 06:13:53 51°12.658 2°33.221 295.3 1.1 300 15.5
2009-05-20 06:14:53 51°12.679 2°33.205 339 2 356 15.9
2009-05-20 06:15:52 51°12.717 2°33.237 44.8 2.5 52 16.1
2009-05-20 06:16:53 51°12.732 2°33.274 37.7 1.5 58 16.6
2009-05-20 06:17:54 51°12.724 2°33.28 42.9 1.6 205 -999
2009-05-20 06:18:55 51°12.707 2°33.266 47.3 0.4 176 18.7
2009-05-20 06:19:54 51°12.705 2°33.276 51.7 0.4 109 20.1
2009-05-20 06:20:53 51°12.703 2°33.288 60 0.5 97 17.6
2009-05-20 06:21:53 51°12.702 2°33.303 69 0.6 91 19.3
2009-05-20 06:22:52 51°12.702 2°33.318 74.9 0.6 73 18.2
2009-05-20 06:23:52 51°12.706 2°33.343 79.6 1 81 17.8
2009-05-20 06:24:52 51°12.708 2°33.371 84.3 1.6 79 17.1
2009-05-20 06:25:53 51°12.719 2°33.431 64.2 2.5 71 17.1
2009-05-20 06:26:52 51°12.732 2°33.484 62.6 2 69 16.9
2009-05-20 06:27:53 51°12.742 2°33.533 69 1.8 74 17
2009-05-20 06:28:53 51°12.749 2°33.575 76.2 1.5 76 16.8
2009-05-20 06:29:53 51°12.753 2°33.612 83.7 1.4 83 17
2009-05-20 06:30:52 51°12.757 2°33.646 90.4 1.3 79 17
2009-05-20 06:31:52 51°12.762 2°33.686 76.2 1.8 77 17
2009-05-20 06:32:53 51°12.777 2°33.734 42.4 2.3 51 17.6
2009-05-20 06:33:52 51°12.814 2°33.758 342.6 2.5 353 16.9
2009-05-20 06:34:53 51°12.848 2°33.714 291.9 2.9 298 16.1
2009-05-20 06:35:52 51°12.856 2°33.622 272 5 273 16
2009-05-20 06:36:53 51°12.871 2°33.456 278 6.5 278 16.5
2009-05-20 06:37:53 51°12.873 2°33.356 264.6 2 269 16.8
2009-05-20 06:38:53 51°12.876 2°33.317 274.9 1.2 285 17.2
2009-05-20 06:39:53 51°12.881 2°33.294 273.5 0.8 297 17.9
2009-05-20 06:40:53 51°12.887 2°33.282 272.3 0.5 312 18.1
2009-05-20 06:41:53 51°12.893 2°33.276 271.6 0.3 340 18.5
2009-05-20 06:42:52 51°12.898 2°33.276 272.9 0.3 11 18.5
2009-05-20 06:43:53 51°12.906 2°33.281 275.6 0.5 33 18.4
2009-05-20 06:44:53 51°12.914 2°33.289 277.7 0.7 30 18.7
2009-05-20 06:45:53 51°12.921 2°33.299 278.1 0.6 43 18.5
2009-05-20 06:46:53 51°12.929 2°33.312 278.3 0.7 50 18.6
2009-05-20 06:47:52 51°12.937 2°33.327 277.7 0.8 53 18.6
2009-05-20 06:48:53 51°12.946 2°33.344 278.1 0.8 53 18.7
2009-05-20 06:49:52 51°12.955 2°33.361 278.4 0.9 54 18.5
2009-05-20 06:50:53 51°12.966 2°33.38 279.2 1 50 18.3
2009-05-20 06:51:53 51°12.975 2°33.401 279.7 1 57 18.5
2009-05-20 06:52:52 51°12.984 2°33.422 282.9 1 52 18.1
2009-05-20 06:53:53 51°12.995 2°33.444 286 1.1 55 18.5
2009-05-20 06:54:53 51°13.005 2°33.466 289.6 1.1 53 18.1
2009-05-20 06:55:53 51°13.016 2°33.489 292 1.1 52 18
2009-05-20 06:56:53 51°13.026 2°33.513 293.3 1.1 53 18.1
2009-05-20 06:57:53 51°13.037 2°33.538 294.3 1.1 54 17.9
2009-05-20 06:58:53 51°13.047 2°33.563 296.2 1.2 56 18.1
2009-05-20 06:59:53 51°13.058 2°33.589 298.1 1.2 57 17.8
2009-05-20 07:00:52 51°13.069 2°33.615 299.8 1.1 54 17.8
2009-05-20 07:01:53 51°13.082 2°33.62 274.3 0.8 326 17.8
2009-05-20 07:02:53 51°13.075 2°33.595 231.6 1.9 227 17.9
2009-05-20 07:03:53 51°13.047 2°33.542 238.1 3.1 233 18.2
2009-05-20 07:04:53 51°13.014 2°33.469 233.8 3.5 227 18.5
2009-05-20 07:05:53 51°12.971 2°33.438 202.3 2.6 187 18.1
2009-05-20 07:06:53 51°12.933 2°33.438 196.7 1.8 172 17.3
2009-05-20 07:07:53 51°12.912 2°33.454 187.7 1 128 17.3
2009-05-20 07:08:53 51°12.914 2°33.478 185.3 1 76 17.2
2009-05-20 07:09:52 51°12.92 2°33.506 182.6 1.2 68 17
2009-05-20 07:10:53 51°12.93 2°33.536 178.5 1.4 55 16.8
2009-05-20 07:11:53 51°12.944 2°33.565 171.4 1.4 50 17
2009-05-20 07:12:53 51°12.959 2°33.593 160.7 1.4 47 16.8
2009-05-20 07:13:53 51°12.974 2°33.619 146.8 1.3 47 16.6
2009-05-20 07:14:53 51°12.99 2°33.643 131.5 1.2 44 16.5
2009-05-20 07:15:53 51°13.002 2°33.667 118 1.3 68 16.6
2009-05-20 07:16:52 51°12.993 2°33.723 153.6 2.6 126 16.3
2009-05-20 07:17:53 51°12.96 2°33.749 207.7 1.9 181 16
2009-05-20 07:18:53 51°12.943 2°33.722 255.5 1.6 256 15.8
2009-05-20 07:19:53 51°12.939 2°33.666 257.4 3.1 259 16.2
2009-05-20 07:20:53 51°12.915 2°33.561 247.6 4.8 247 16.7
2009-05-20 07:21:53 51°12.88 2°33.444 243.8 4.1 242 17
2009-05-20 07:22:53 51°12.862 2°33.388 249.4 1.5 252 17.2
2009-05-20 07:23:53 51°12.858 2°33.362 247.6 0.7 259 17.2
2009-05-20 07:24:53 51°12.858 2°33.35 246.4 0.2 291 17.3
2009-05-20 07:25:53 51°12.861 2°33.35 248.2 0.2 33 17.5
2009-05-20 07:26:53 51°12.866 2°33.357 248.9 0.5 42 17.1
2009-05-20 07:27:53 51°12.873 2°33.367 252.1 0.7 45 17.3
2009-05-20 07:28:53 51°12.882 2°33.381 255.8 0.8 48 17.3
2009-05-20 07:29:53 51°12.892 2°33.399 259.3 0.9 48 17.5
2009-05-20 07:30:53 51°12.903 2°33.419 263 1.1 45 17.3
2009-05-20 07:31:53 51°12.914 2°33.44 267 1.1 50 17.6
2009-05-20 07:32:53 51°12.926 2°33.463 268.9 1.1 51 17.4
2009-05-20 07:33:53 51°12.939 2°33.486 270.4 1.2 50 17.5
2009-05-20 07:34:53 51°12.952 2°33.51 272.3 1.2 53 17.4
2009-05-20 07:35:53 51°12.965 2°33.535 274.4 1.3 50 17.6
2009-05-20 07:36:53 51°12.978 2°33.561 276.5 1.3 52 17.2
2009-05-20 07:37:53 51°12.991 2°33.588 278.1 1.3 52 17.2
2009-05-20 07:38:53 51°13.005 2°33.616 280.2 1.3 52 17.1
2009-05-20 07:39:53 51°13.019 2°33.644 281.7 1.4 52 17.1
2009-05-20 07:40:53 51°13.026 2°33.64 245.3 1.5 240 17.2
2009-05-20 07:41:53 51°12.984 2°33.631 188.6 3.8 174 17
2009-05-20 07:42:53 51°12.932 2°33.609 220.6 2.3 205 16.7
2009-05-20 07:43:53 51°12.909 2°33.59 225.3 1.1 207 16.5
2009-05-20 07:44:53 51°12.897 2°33.586 220.9 0.4 106 16.6
2009-05-20 07:45:53 51°12.899 2°33.603 219.1 0.8 78 16.5
2009-05-20 07:46:53 51°12.904 2°33.622 223.3 0.8 67 16.6
2009-05-20 07:47:53 51°12.908 2°33.641 231.9 0.5 65 16.4
2009-05-20 07:48:53 51°12.909 2°33.636 247 0.3 280 16.3
2009-05-20 07:49:53 51°12.912 2°33.632 244.9 0.2 6 16.2
2009-05-20 07:50:53 51°12.913 2°33.635 240.3 0.2 68 16.3
2009-05-20 07:51:53 51°12.912 2°33.636 235 0.2 197 16.3
2009-05-20 07:52:53 51°12.91 2°33.636 234.8 -999 89 16.4
2009-05-20 07:53:53 51°12.91 2°33.638 238.2 0.1 54 16.5
2009-05-20 07:54:52 51°12.91 2°33.637 239.4 0.1 261 16.4
2009-05-20 07:55:53 51°12.909 2°33.636 238.1 -999 56 16.4
2009-05-20 07:56:52 51°12.91 2°33.638 236.3 0.1 89 16.5
2009-05-20 07:57:53 51°12.909 2°33.638 236.5 0.1 233 16.4
2009-05-20 07:58:52 51°12.909 2°33.638 236.9 -999 126 16.5
2009-05-20 07:59:53 51°12.909 2°33.637 237.6 -999 347 16.4
2009-05-20 08:00:53 51°12.91 2°33.637 237 -999 333 16.4
2009-05-20 08:01:53 51°12.909 2°33.637 237.4 -999 315 16.4
2009-05-20 08:02:53 51°12.909 2°33.637 235.8 -999 124 16.5
2009-05-20 08:03:52 51°12.909 2°33.637 237.8 -999 270 16.5
2009-05-20 08:04:53 51°12.909 2°33.637 238.8 -999 345 16.5
2009-05-20 08:05:53 51°12.91 2°33.638 237.2 -999 346 16.4
2009-05-20 08:06:53 51°12.91 2°33.638 236 0.1 167 16.4
2009-05-20 08:07:53 51°12.909 2°33.637 235.2 -999 116 16.5
2009-05-20 08:08:52 51°12.909 2°33.638 236 -999 305 16.4
2009-05-20 08:09:53 51°12.909 2°33.637 236.9 -999 326 16.4
2009-05-20 08:10:53 51°12.909 2°33.637 235.5 -999 32 16.4
2009-05-20 08:11:53 51°12.909 2°33.637 235.2 -999 159 16.4
2009-05-20 08:12:53 51°12.908 2°33.638 234.3 0.1 147 16.5
2009-05-20 08:13:53 51°12.908 2°33.638 235.2 -999 307 16.5
2009-05-20 08:14:53 51°12.908 2°33.638 234.9 -999 119 16.5
2009-05-20 08:15:53 51°12.908 2°33.638 235.2 0.1 128 16.5
2009-05-20 08:16:53 51°12.908 2°33.639 236 -999 122 16.2
2009-05-20 08:17:52 51°12.908 2°33.639 235 0.1 312 16.4
2009-05-20 08:18:53 51°12.908 2°33.639 235 0.1 304 16.5
2009-05-20 08:19:53 51°12.908 2°33.638 234.5 -999 223 16.6
2009-05-20 08:20:53 51°12.907 2°33.639 233.5 -999 182 16.5
2009-05-20 08:21:53 51°12.906 2°33.639 233.9 -999 236 16.5
2009-05-20 08:22:53 51°12.906 2°33.639 234.9 -999 346 16.5
2009-05-20 08:23:53 51°12.906 2°33.639 234.1 -999 329 16.6
2009-05-20 08:24:52 51°12.906 2°33.639 235.3 -999 85 16.5
2009-05-20 08:25:53 51°12.907 2°33.639 236.4 0.1 308 16.5
2009-05-20 08:26:53 51°12.907 2°33.639 235.9 -999 120 16.5
2009-05-20 08:27:53 51°12.907 2°33.64 234.8 -999 129 16.6
2009-05-20 08:28:53 51°12.907 2°33.639 235 0.1 311 16.5
2009-05-20 08:29:53 51°12.907 2°33.639 234.5 -999 47 16.5
2009-05-20 08:30:53 51°12.907 2°33.64 234.6 0.1 107 16.5
2009-05-20 08:31:53 51°12.908 2°33.639 235.3 -999 273 16.6
2009-05-20 08:32:53 51°12.908 2°33.639 235.5 -999 6 16.5
2009-05-20 08:33:53 51°12.908 2°33.639 234.9 0.1 299 16.5
2009-05-20 08:34:53 51°12.909 2°33.638 235.2 -999 357 16.5
2009-05-20 08:35:53 51°12.908 2°33.638 232.6 0.1 163 16.5
2009-05-20 08:36:53 51°12.908 2°33.638 233.5 -999 156 16.5
2009-05-20 08:37:53 51°12.908 2°33.638 233.1 -999 174 16.5
2009-05-20 08:38:53 51°12.908 2°33.639 232.8 0.1 106 16.6
2009-05-20 08:39:53 51°12.908 2°33.639 233.3 -999 122 16.6
2009-05-20 08:40:53 51°12.908 2°33.639 234.2 -999 336 16.5
2009-05-20 08:41:53 51°12.908 2°33.639 233.5 -999 186 16.5
2009-05-20 08:42:53 51°12.908 2°33.639 232.5 -999 224 16.5
2009-05-20 08:43:53 51°12.908 2°33.639 232.7 -999 108 16.5
2009-05-20 08:44:53 51°12.908 2°33.638 232.3 -999 222 16.5
2009-05-20 08:45:53 51°12.909 2°33.638 233.8 -999 7 16.5
2009-05-20 08:46:53 51°12.909 2°33.637 232 0.1 314 16.5
2009-05-20 08:47:53 51°12.908 2°33.638 231.8 -999 230 16.4
2009-05-20 08:48:53 51°12.908 2°33.638 232.2 -999 173 16.4
2009-05-20 08:49:53 51°12.908 2°33.639 231.5 -999 28 16.5
2009-05-20 08:50:53 51°12.908 2°33.639 233.1 -999 186 16.4
2009-05-20 08:51:53 51°12.908 2°33.638 233.1 -999 72 16.3
2009-05-20 08:52:53 51°12.909 2°33.638 231.7 -999 103 16.5
2009-05-20 08:53:53 51°12.908 2°33.638 230.1 -999 174 16.5
2009-05-20 08:54:53 51°12.908 2°33.637 232.3 -999 193 16.4
2009-05-20 08:55:53 51°12.908 2°33.637 232.1 -999 156 16.4
2009-05-20 08:56:52 51°12.908 2°33.638 231.6 -999 106 16.5
2009-05-20 08:57:53 51°12.907 2°33.638 231.7 0.1 154 16.5
2009-05-20 08:58:53 51°12.908 2°33.638 233.8 -999 347 16.4
2009-05-20 08:59:53 51°12.908 2°33.636 234.5 0.1 313 16.4
2009-05-20 09:00:52 51°12.909 2°33.636 232.1 -999 134 16.5
2009-05-20 09:01:52 51°12.908 2°33.637 230.4 -999 178 16.4
2009-05-20 09:02:53 51°12.907 2°33.638 231 0.1 159 16.4
2009-05-20 09:03:53 51°12.906 2°33.637 228.2 0.2 171 16.5
2009-05-20 09:04:53 51°12.9 2°33.639 207.7 0.7 178 16.5
2009-05-20 09:05:53 51°12.89 2°33.638 210 0.7 192 16.7
2009-05-20 09:06:53 51°12.882 2°33.631 217.8 0.3 222 16.5
2009-05-20 09:07:53 51°12.881 2°33.628 230.7 0.1 291 16.6
2009-05-20 09:08:53 51°12.883 2°33.629 236.1 0.2 23 16.6
2009-05-20 09:09:53 51°12.887 2°33.633 240.8 0.4 25 16.6
2009-05-20 09:10:53 51°12.888 2°33.635 225.8 0.2 174 16.7
2009-05-20 09:11:53 51°12.886 2°33.637 217.1 0.2 195 16.8
2009-05-20 09:12:53 51°12.882 2°33.631 218.3 0.2 234 16.4
2009-05-20 09:13:53 51°12.882 2°33.629 221.6 0.1 6 16.7
2009-05-20 09:14:53 51°12.884 2°33.632 226.9 0.2 37 16.6
2009-05-20 09:15:53 51°12.889 2°33.636 234.3 0.4 37 16.7
2009-05-20 09:16:53 51°12.894 2°33.64 242.3 0.3 22 16.5
2009-05-20 09:17:53 51°12.9 2°33.639 248.4 0.3 346 16.4
2009-05-20 09:18:53 51°12.904 2°33.635 246.9 0.2 309 16.5
2009-05-20 09:19:53 51°12.904 2°33.632 238.2 0.1 289 16.4
2009-05-20 09:20:53 51°12.905 2°33.632 229.9 0.1 92 16.4
2009-05-20 09:21:53 51°12.905 2°33.634 224.4 0.1 107 16.5
2009-05-20 09:22:53 51°12.904 2°33.636 223.9 0.1 139 16.5
2009-05-20 09:23:53 51°12.902 2°33.636 225.7 0.1 185 16.5
2009-05-20 09:24:53 51°12.901 2°33.636 228.7 -999 148 16.4
2009-05-20 09:25:53 51°12.901 2°33.636 230.6 0.1 125 16.4
2009-05-20 09:26:53 51°12.902 2°33.637 232.4 -999 339 16.4
2009-05-20 09:27:53 51°12.903 2°33.636 234.8 0.1 312 16.5
2009-05-20 09:28:53 51°12.903 2°33.634 236 -999 280 16.5
2009-05-20 09:29:53 51°12.904 2°33.633 235.1 0.1 285 16.4
2009-05-20 09:30:53 51°12.904 2°33.632 234.8 -999 202 16.4
2009-05-20 09:31:53 51°12.904 2°33.633 232.5 -999 125 16.3
2009-05-20 09:32:53 51°12.904 2°33.634 232.3 0.1 128 16.4
2009-05-20 09:33:53 51°12.903 2°33.635 234.3 -999 233 16.4
2009-05-20 09:34:53 51°12.903 2°33.635 236 -999 134 16.5
2009-05-20 09:35:53 51°12.903 2°33.635 237.2 -999 84 16.5
2009-05-20 09:36:53 51°12.904 2°33.634 239.9 0.1 302 16.4
2009-05-20 09:37:53 51°12.906 2°33.631 240 0.1 267 16.4
2009-05-20 09:38:53 51°12.905 2°33.63 238.5 -999 274 16.2
2009-05-20 09:39:53 51°12.906 2°33.63 236 -999 16 16.3
2009-05-20 09:40:53 51°12.906 2°33.63 235.7 -999 331 16.3
2009-05-20 09:41:53 51°12.906 2°33.631 234.3 -999 150 16.2
2009-05-20 09:42:53 51°12.905 2°33.631 233.8 -999 190 16.3
2009-05-20 09:43:53 51°12.905 2°33.632 232.8 -999 125 16.3
2009-05-20 09:44:53 51°12.904 2°33.633 231.8 0.1 135 16.3
2009-05-20 09:45:52 51°12.904 2°33.634 232.8 0.1 146 16.2
2009-05-20 09:46:53 51°12.904 2°33.634 234.7 0.1 234 16.4
2009-05-20 09:47:53 51°12.904 2°33.633 236.5 0.1 260 16.3
2009-05-20 09:48:53 51°12.906 2°33.63 236.7 -999 280 16.2
2009-05-20 09:49:53 51°12.905 2°33.631 235.3 0.1 100 16.3
2009-05-20 09:50:53 51°12.905 2°33.63 233.6 0.1 316 16.2
2009-05-20 09:51:53 51°12.905 2°33.631 234.5 -999 97 16.2
2009-05-20 09:52:53 51°12.905 2°33.632 235.2 0.1 8 16.2
2009-05-20 09:53:52 51°12.905 2°33.632 235.4 -999 280 16.3
2009-05-20 09:54:53 51°12.905 2°33.631 235 0.1 310 16.1
2009-05-20 09:55:53 51°12.905 2°33.631 232.8 -999 335 16.2
2009-05-20 09:56:53 51°12.905 2°33.631 232.5 -999 15 16.2
2009-05-20 09:57:52 51°12.905 2°33.632 233 -999 248 16.2
2009-05-20 09:58:53 51°12.905 2°33.632 233.1 -999 322 16.2
2009-05-20 09:59:52 51°12.905 2°33.632 233.4 -999 107 16.1
2009-05-20 10:00:53 51°12.905 2°33.631 234.1 0.1 314 16.1
2009-05-20 10:01:53 51°12.906 2°33.63 234.5 -999 344 16.1
2009-05-20 10:02:53 51°12.906 2°33.629 232.8 0.1 147 16.1
2009-05-20 10:03:52 51°12.906 2°33.63 231.1 -999 104 16
2009-05-20 10:04:53 51°12.906 2°33.631 231.5 -999 28 16.1
2009-05-20 10:05:53 51°12.906 2°33.632 231.6 0.1 126 16.1
2009-05-20 10:06:53 51°12.906 2°33.632 231 0.1 118 16.2
2009-05-20 10:07:52 51°12.906 2°33.632 231.8 -999 333 16.1
2009-05-20 10:08:53 51°12.906 2°33.631 234.5 -999 281 16
2009-05-20 10:09:53 51°12.906 2°33.631 232.9 0.1 79 16.1
2009-05-20 10:10:53 51°12.906 2°33.63 232.3 0.1 315 16
2009-05-20 10:11:52 51°12.906 2°33.63 232.1 -999 247 16
2009-05-20 10:12:52 51°12.906 2°33.63 229.8 0.1 95 16
2009-05-20 10:13:53 51°12.906 2°33.63 228.6 -999 134 16.1
2009-05-20 10:14:52 51°12.906 2°33.63 229.3 -999 123 16.1
2009-05-20 10:15:53 51°12.905 2°33.631 229.3 0.1 140 16
2009-05-20 10:16:52 51°12.905 2°33.631 230.5 -999 236 16.1
2009-05-20 10:17:53 51°12.905 2°33.63 231.7 -999 288 16
2009-05-20 10:18:52 51°12.905 2°33.63 231.4 -999 120 16
2009-05-20 10:19:53 51°12.905 2°33.63 231.9 -999 78 16
2009-05-20 10:20:53 51°12.906 2°33.63 232.1 -999 318 15.9
2009-05-20 10:21:53 51°12.906 2°33.63 230.7 -999 106 15.9
2009-05-20 10:22:53 51°12.906 2°33.63 229.6 -999 205 15.9
2009-05-20 10:23:53 51°12.905 2°33.631 230 -999 86 16
2009-05-20 10:24:53 51°12.905 2°33.631 231.3 -999 139 16
2009-05-20 10:25:52 51°12.905 2°33.632 232.8 -999 60 16
2009-05-20 10:26:53 51°12.906 2°33.631 233.6 -999 347 15.9
2009-05-20 10:27:53 51°12.906 2°33.63 233.4 -999 309 15.9
2009-05-20 10:28:53 51°12.906 2°33.629 233.1 -999 32 15.9
2009-05-20 10:29:53 51°12.906 2°33.628 231.6 -999 311 15.9
2009-05-20 10:30:53 51°12.906 2°33.628 231.6 0.1 112 15.9
2009-05-20 10:31:53 51°12.906 2°33.628 231.6 -999 66 15.9
2009-05-20 10:32:53 51°12.906 2°33.628 229.7 0.1 154 15.8
2009-05-20 10:33:52 51°12.906 2°33.628 229.6 -999 221 15.8
2009-05-20 10:34:53 51°12.906 2°33.628 232.3 0.1 350 15.8
2009-05-20 10:35:52 51°12.906 2°33.627 233.1 -999 304 15.7
2009-05-20 10:36:53 51°12.906 2°33.627 231 -999 134 15.9
2009-05-20 10:37:53 51°12.906 2°33.628 228.3 0.1 88 15.8
2009-05-20 10:38:53 51°12.906 2°33.629 228.2 0.1 125 15.8
2009-05-20 10:39:53 51°12.906 2°33.629 229.1 -999 130 15.7
2009-05-20 10:40:53 51°12.906 2°33.63 228.8 -999 86 15.7
2009-05-20 10:41:53 51°12.906 2°33.63 228.8 -999 221 15.7
2009-05-20 10:42:53 51°12.906 2°33.629 229.4 -999 329 15.8
2009-05-20 10:43:53 51°12.906 2°33.629 229.4 0.1 325 15.7
2009-05-20 10:44:53 51°12.906 2°33.629 229.5 -999 24 15.8
2009-05-20 10:45:53 51°12.906 2°33.629 229.9 -999 337 15.7
2009-05-20 10:46:52 51°12.906 2°33.629 230.1 -999 328 15.6
2009-05-20 10:47:52 51°12.906 2°33.628 230.1 -999 332 15.7
2009-05-20 10:48:53 51°12.907 2°33.628 230.6 0.1 337 15.6
2009-05-20 10:49:53 51°12.907 2°33.628 229.8 -999 201 15.5
2009-05-20 10:50:53 51°12.906 2°33.629 228.2 -999 98 15.6
2009-05-20 10:51:53 51°12.907 2°33.629 228.8 -999 74 15.7
2009-05-20 10:52:52 51°12.907 2°33.629 230.1 -999 256 15.6
2009-05-20 10:53:53 51°12.907 2°33.628 229.3 0.1 180 15.7
2009-05-20 10:54:53 51°12.907 2°33.628 228.9 -999 359 15.5
2009-05-20 10:55:52 51°12.906 2°33.628 229.7 0.1 170 15.6
2009-05-20 10:56:53 51°12.906 2°33.627 230 -999 234 15.6
2009-05-20 10:57:53 51°12.906 2°33.627 229.9 -999 241 15.4
2009-05-20 10:58:53 51°12.906 2°33.627 229.1 -999 344 15.5
2009-05-20 10:59:53 51°12.906 2°33.628 229.4 -999 127 15.5
2009-05-20 11:00:53 51°12.906 2°33.628 229.7 -999 358 15.4
2009-05-20 11:01:53 51°12.906 2°33.628 229.4 0.1 156 15.4
2009-05-20 11:02:53 51°12.905 2°33.627 229 0.1 297 15.4
2009-05-20 11:03:53 51°12.906 2°33.626 229.5 0.1 275 15.4
2009-05-20 11:04:52 51°12.906 2°33.626 228.9 -999 303 15.5
2009-05-20 11:05:53 51°12.906 2°33.626 227 0.1 320 15.5
2009-05-20 11:06:52 51°12.905 2°33.623 227.3 0.2 261 15.7
2009-05-20 11:07:53 51°12.901 2°33.617 226.5 0.4 220 15.6
2009-05-20 11:08:53 51°12.898 2°33.608 227.5 0.6 248 15.4
2009-05-20 11:09:53 51°12.895 2°33.593 239.4 0.5 256 15.7
2009-05-20 11:10:53 51°12.896 2°33.582 245.1 0.3 277 15.8
2009-05-20 11:11:53 51°12.9 2°33.572 248.3 0.4 307 15.8
2009-05-20 11:12:53 51°12.903 2°33.566 251.1 0.3 322 15.9
2009-05-20 11:13:52 51°12.907 2°33.56 255.1 0.3 325 16.1
2009-05-20 11:14:53 51°12.912 2°33.555 259.9 0.3 332 15.7
2009-05-20 11:15:53 51°12.918 2°33.552 266.2 0.4 337 15.9
2009-05-20 11:16:53 51°12.924 2°33.549 272.3 0.3 347 16
2009-05-20 11:17:53 51°12.931 2°33.547 277.8 0.4 351 16
2009-05-20 11:18:53 51°12.938 2°33.546 283 0.5 352 16.2
2009-05-20 11:19:53 51°12.946 2°33.545 288.2 0.5 -999 16.2
2009-05-20 11:20:53 51°12.954 2°33.544 293 0.5 -999 16.3
2009-05-20 11:21:53 51°12.961 2°33.543 296.9 0.4 357 16.1
2009-05-20 11:22:53 51°12.969 2°33.543 299.7 0.5 3 16.6
2009-05-20 11:23:53 51°12.976 2°33.543 302.6 0.5 3 16.4
2009-05-20 11:24:53 51°12.984 2°33.543 304.6 0.4 357 16.4
2009-05-20 11:25:53 51°12.99 2°33.543 306.3 0.4 -999 16.4
2009-05-20 11:26:53 51°12.997 2°33.543 307 0.3 -999 16.6
2009-05-20 11:27:53 51°13.003 2°33.543 307.1 0.3 349 16.7
2009-05-20 11:28:53 51°13.009 2°33.542 307.4 0.4 1 16.9
2009-05-20 11:29:53 51°13.014 2°33.541 309.4 0.3 359 16.8
2009-05-20 11:30:53 51°13.02 2°33.54 310.3 0.4 352 17.2
2009-05-20 11:31:53 51°13.026 2°33.539 310.7 0.3 348 17.3
2009-05-20 11:32:53 51°13.031 2°33.538 310.8 0.3 346 17.2
2009-05-20 11:33:53 51°13.036 2°33.536 310.3 0.3 342 17.2
2009-05-20 11:34:53 51°13.041 2°33.535 310.3 0.3 348 17.2
2009-05-20 11:35:53 51°13.047 2°33.533 310.2 0.3 349 17.5
2009-05-20 11:36:53 51°13.052 2°33.531 310 0.3 349 17.5
2009-05-20 11:37:53 51°13.057 2°33.529 309.9 0.2 340 17.6
2009-05-20 11:38:53 51°13.062 2°33.525 308.7 0.4 324 17.7
2009-05-20 11:39:53 51°13.064 2°33.468 243.1 3.6 241 18
2009-05-20 11:40:53 51°12.961 2°33.424 186.4 9 189 17.1
2009-05-20 11:41:53 51°12.867 2°33.391 200.4 4 200 16
2009-05-20 11:42:53 51°12.822 2°33.356 212 2.4 213 15.6
2009-05-20 11:43:53 51°12.803 2°33.331 228.4 0.4 244 15.9
2009-05-20 11:44:53 51°12.807 2°33.337 236.1 0.6 47 15.7
2009-05-20 11:45:53 51°12.812 2°33.347 231.7 0.4 42 15.8
2009-05-20 11:46:54 51°12.816 2°33.351 229.1 0.2 5 15.7
2009-05-20 11:47:53 51°12.819 2°33.352 229.5 0.1 349 15.9
2009-05-20 11:48:53 51°12.82 2°33.351 230.8 0.1 303 15.9
2009-05-20 11:49:53 51°12.821 2°33.348 234.6 0.1 228 15.7
2009-05-20 11:50:53 51°12.821 2°33.342 240 0.2 244 15.5
2009-05-20 11:51:53 51°12.821 2°33.334 245.4 0.3 266 15.9
2009-05-20 11:52:53 51°12.821 2°33.326 251.2 0.4 277 15.6
2009-05-20 11:53:53 51°12.822 2°33.316 258.4 0.4 285 15.9
2009-05-20 11:54:53 51°12.824 2°33.306 265 0.4 283 15.9
2009-05-20 11:55:53 51°12.826 2°33.296 271.9 0.4 297 15.6
2009-05-20 11:56:53 51°12.828 2°33.286 279.4 0.4 298 16.1
2009-05-20 11:57:53 51°12.831 2°33.277 285.9 0.4 295 16.3
2009-05-20 11:58:53 51°12.834 2°33.268 292.1 0.4 292 16.6
2009-05-20 11:59:53 51°12.837 2°33.26 297.7 0.5 306 16.6
2009-05-20 12:00:54 51°12.841 2°33.251 302.7 0.4 304 16.9
2009-05-20 12:01:52 51°12.844 2°33.243 306.9 0.4 302 17.1
2009-05-20 12:02:53 51°12.847 2°33.234 310.1 0.4 303 17
2009-05-20 12:03:53 51°12.85 2°33.225 313.7 0.4 299 17.2
2009-05-20 12:04:53 51°12.853 2°33.217 316.8 0.3 307 17.2
2009-05-20 12:05:53 51°12.857 2°33.208 318.7 0.3 298 17.5
2009-05-20 12:06:53 51°12.86 2°33.199 319.3 0.4 308 17.8
2009-05-20 12:07:53 51°12.863 2°33.191 319.2 0.4 298 17.4
2009-05-20 12:08:53 51°12.865 2°33.182 318.8 0.4 295 17.8
2009-05-20 12:09:53 51°12.867 2°33.173 318.6 0.3 291 17.7
2009-05-20 12:10:53 51°12.868 2°33.165 317.4 0.3 290 18.2
2009-05-20 12:11:53 51°12.87 2°33.156 315.3 0.4 280 18.1
2009-05-20 12:12:53 51°12.87 2°33.147 312.1 0.3 273 18.3
2009-05-20 12:13:54 51°12.871 2°33.139 309.1 0.3 270 18.3
2009-05-20 12:14:53 51°12.871 2°33.13 306.4 0.3 266 18.2
2009-05-20 12:15:53 51°12.871 2°33.122 302.8 0.3 261 18.7
2009-05-20 12:16:54 51°12.87 2°33.113 299.4 0.4 258 18.3
2009-05-20 12:17:53 51°12.87 2°33.104 295.7 0.4 263 18.7
2009-05-20 12:18:53 51°12.869 2°33.096 292.7 0.3 259 18.8
2009-05-20 12:19:53 51°12.868 2°33.087 290.5 0.3 261 18.9
2009-05-20 12:20:53 51°12.867 2°33.078 288.6 0.3 262 18.8
2009-05-20 12:21:54 51°12.865 2°33.069 286.8 0.3 259 18.9
2009-05-20 12:22:53 51°12.864 2°33.059 285.4 0.4 256 18.9
2009-05-20 12:23:53 51°12.862 2°33.049 284.5 0.4 250 19
2009-05-20 12:24:54 51°12.86 2°33.039 284 0.4 251 19.1
2009-05-20 12:25:53 51°12.857 2°33.03 283.2 0.4 252 19.1
2009-05-20 12:26:53 51°12.855 2°33.02 283.2 0.4 247 19.3
2009-05-20 12:27:54 51°12.853 2°33.01 283.9 0.4 249 19.3
2009-05-20 12:28:53 51°12.849 2°32.999 284.9 0.4 245 19.4
2009-05-20 12:29:54 51°12.847 2°32.987 285.8 0.5 256 19.4
2009-05-20 12:30:53 51°12.845 2°32.963 269.4 1.8 268 19.9
2009-05-20 12:31:53 51°12.825 2°32.911 212.6 2.9 212 20
2009-05-20 12:32:53 51°12.776 2°32.932 125.3 3.9 121 18.4
2009-05-20 12:33:54 51°12.766 2°33.029 93.2 4.5 93 17.2
2009-05-20 12:34:53 51°12.77 2°33.145 77.7 3.5 75 16.4
2009-05-20 12:35:53 51°12.787 2°33.21 66.1 2.1 63 15.8
2009-05-20 12:36:54 51°12.801 2°33.249 62.8 1.4 58 15.4
2009-05-20 12:37:53 51°12.811 2°33.274 67.6 0.9 57 15.4
2009-05-20 12:38:54 51°12.816 2°33.293 76 0.6 71 15.2
2009-05-20 12:39:54 51°12.818 2°33.306 85.7 0.4 87 15.1
2009-05-20 12:40:54 51°12.817 2°33.315 94.1 0.3 112 15.3
2009-05-20 12:41:53 51°12.814 2°33.321 100.2 0.2 139 15
2009-05-20 12:42:53 51°12.811 2°33.324 103.6 0.2 168 15
2009-05-20 12:43:53 51°12.808 2°33.323 105.8 0.2 195 15.1
2009-05-20 12:44:53 51°12.804 2°33.325 104.8 0.5 126 15
2009-05-20 12:45:53 51°12.801 2°33.344 88.2 0.9 91 15.2
2009-05-20 12:46:54 51°12.805 2°33.372 69.3 1.2 67 15.1
2009-05-20 12:47:53 51°12.813 2°33.394 59.7 0.8 50 15.1
2009-05-20 12:48:54 51°12.819 2°33.405 57.5 0.4 43 15.1
2009-05-20 12:49:53 51°12.823 2°33.41 55.7 0.3 40 15.2
2009-05-20 12:50:54 51°12.829 2°33.429 81.9 1.2 79 15
2009-05-20 12:51:53 51°12.827 2°33.45 100.8 0.7 107 15
2009-05-20 12:52:54 51°12.823 2°33.464 100.2 0.5 121 14.8
2009-05-20 12:53:53 51°12.819 2°33.472 97 0.5 154 15.1
2009-05-20 12:54:53 51°12.818 2°33.476 92.8 0.2 162 15.2
2009-05-20 12:55:54 51°12.815 2°33.475 88.6 0.1 205 15.2
2009-05-20 12:56:53 51°12.813 2°33.473 85.2 0.2 235 15.2
2009-05-20 12:57:54 51°12.811 2°33.468 84.2 0.3 242 15.1
2009-05-20 12:58:53 51°12.808 2°33.461 85.7 0.4 226 15.2
2009-05-20 12:59:53 51°12.804 2°33.451 89.5 0.5 237 15
2009-05-20 13:00:53 51°12.799 2°33.439 96.5 0.5 235 15.2
2009-05-20 13:01:53 51°12.793 2°33.426 104.2 0.5 244 15.1
2009-05-20 13:02:53 51°12.788 2°33.412 111.9 0.6 243 15.2
2009-05-20 13:03:53 51°12.783 2°33.397 118.7 0.7 242 15.3
2009-05-20 13:04:54 51°12.778 2°33.381 123.9 0.7 241 15.5
2009-05-20 13:05:53 51°12.774 2°33.365 128.2 0.7 242 15.2
2009-05-20 13:06:54 51°12.768 2°33.347 130.9 0.7 246 15.3
2009-05-20 13:07:53 51°12.759 2°33.337 144.9 1.2 173 15.7
2009-05-20 13:08:53 51°12.728 2°33.386 111.5 3.6 112 16.6
2009-05-20 13:09:52 51°12.735 2°33.488 68.2 4.9 66 15.5
2009-05-20 13:10:53 51°12.795 2°33.653 62.6 8.8 60 15
2009-05-20 13:11:53 51°12.882 2°33.889 62.6 11.1 60 15.2
2009-05-20 13:12:53 51°12.975 2°34.145 62.7 11.2 60 15.8
2009-05-20 13:13:53 51°13.067 2°34.402 62.4 11.2 60 16.2
2009-05-20 13:14:52 51°13.159 2°34.653 62.7 11.2 60 16.7
2009-05-20 13:15:53 51°13.253 2°34.913 62.4 11.1 60 16.9
2009-05-20 13:16:53 51°13.348 2°35.166 62.5 11 59 16.3
2009-05-20 13:17:53 51°13.443 2°35.415 61.7 11 60 17.1
2009-05-20 13:18:53 51°13.537 2°35.665 61.9 11 60 16.5
2009-05-20 13:19:53 51°13.626 2°35.916 62.5 10.8 61 16.9
2009-05-20 13:20:53 51°13.717 2°36.165 62.2 10.8 59 18.8
2009-05-20 13:21:53 51°13.808 2°36.409 61.1 10.8 59 18.8
2009-05-20 13:22:52 51°13.899 2°36.654 62.9 10.8 61 18.3
2009-05-20 13:23:53 51°13.991 2°36.908 61 10.9 58 17.6
2009-05-20 13:24:53 51°14.08 2°37.158 65.2 10.8 63 17.2
2009-05-20 13:25:53 51°14.152 2°37.419 70.5 10.7 70 16.4
2009-05-20 13:26:53 51°14.206 2°37.691 75.5 10.8 75 17.3
2009-05-20 13:27:53 51°14.238 2°37.971 81.4 10.8 82 18.4
2009-05-20 13:28:53 51°14.252 2°38.258 87.1 10.9 88 18
2009-05-20 13:29:53 51°14.255 2°38.547 88.2 10.9 89 16.2
2009-05-20 13:30:52 51°14.263 2°38.83 87.4 10.8 88 14.2
2009-05-20 13:31:53 51°14.273 2°39.122 86.9 10.8 87 11.4
2009-05-20 13:32:53 51°14.284 2°39.409 87 10.9 86 12.7
2009-05-20 13:33:53 51°14.295 2°39.696 86.5 10.9 87 12.9
2009-05-20 13:34:53 51°14.309 2°39.983 86.5 10.8 85 12.9
2009-05-20 13:35:53 51°14.322 2°40.269 86.4 10.9 87 13.2
2009-05-20 13:36:53 51°14.335 2°40.556 86.4 10.9 86 12.8
2009-05-20 13:37:53 51°14.348 2°40.845 86.5 10.9 86 13.3
2009-05-20 13:38:53 51°14.362 2°41.132 86.5 10.8 86 13.8
2009-05-20 13:39:53 51°14.376 2°41.42 86.5 10.9 86 13.8
2009-05-20 13:40:53 51°14.39 2°41.708 86.4 11 86 14.8
2009-05-20 13:41:53 51°14.405 2°41.997 85 10.9 85 16
2009-05-20 13:42:53 51°14.418 2°42.286 87.2 11 87 16.9
2009-05-20 13:43:53 51°14.43 2°42.576 84.3 10.9 84 16.9
2009-05-20 13:44:53 51°14.44 2°42.866 87.2 11 87 16.9
2009-05-20 13:45:53 51°14.448 2°43.157 86.9 11 88 16.5
2009-05-20 13:46:53 51°14.457 2°43.446 86.7 10.9 88 15.8
2009-05-20 13:47:53 51°14.465 2°43.731 86 10.7 87 15.7
2009-05-20 13:48:53 51°14.474 2°44.015 86.4 10.6 87 14.7
2009-05-20 13:49:53 51°14.483 2°44.297 86.5 10.7 86 13.8
2009-05-20 13:50:53 51°14.498 2°44.578 84.9 10.7 85 12.7
2009-05-20 13:51:53 51°14.512 2°44.86 85.5 10.7 85 11.2
2009-05-20 13:52:53 51°14.524 2°45.141 87.4 10.6 86 9.9
2009-05-20 13:53:53 51°14.536 2°45.421 86.5 10.4 85 8.2
2009-05-20 13:54:54 51°14.552 2°45.701 85.6 10.5 85 7.9
2009-05-20 13:55:53 51°14.568 2°45.974 85.1 10.6 84 9
2009-05-20 13:56:53 51°14.58 2°46.255 87.2 10.6 88 11
2009-05-20 13:57:52 51°14.585 2°46.532 87.3 10.6 88 12.4
2009-05-20 13:58:53 51°14.591 2°46.818 86.5 10.6 87 12.4
2009-05-20 13:59:53 51°14.6 2°47.099 85.7 10.6 86 12.1
2009-05-20 14:00:52 51°14.608 2°47.375 86.7 10.6 87 11.1
2009-05-20 14:01:53 51°14.619 2°47.661 86.9 10.6 86 10.4
2009-05-20 14:02:53 51°14.631 2°47.942 85 10.6 87 10.5
2009-05-20 14:03:53 51°14.64 2°48.224 86.8 10.7 88 11.1
2009-05-20 14:04:53 51°14.649 2°48.506 85.9 10.6 87 11.6
2009-05-20 14:05:53 51°14.66 2°48.787 84.5 10.7 85 11.7
2009-05-20 14:06:53 51°14.667 2°49.068 88.8 10.6 93 11.8
2009-05-20 14:07:53 51°14.661 2°49.35 90.5 10.7 92 11.8
2009-05-20 14:08:53 51°14.664 2°49.629 87.8 10.5 89 11.7
2009-05-20 14:09:53 51°14.666 2°49.908 88.2 10.5 88 11.5
2009-05-20 14:10:53 51°14.668 2°50.186 87.6 10.4 89 11.2
2009-05-20 14:11:53 51°14.671 2°50.462 87.6 10.5 89 11
2009-05-20 14:12:53 51°14.674 2°50.741 86.4 10.6 88 10.7
2009-05-20 14:13:53 51°14.677 2°51.019 87.3 10.5 90 10.3
2009-05-20 14:14:53 51°14.679 2°51.287 87.5 9.1 90 10.1
2009-05-20 14:15:53 51°14.677 2°51.508 88.6 8 93 9.7
2009-05-20 14:16:53 51°14.671 2°51.718 89.8 7.9 94 9.5
2009-05-20 14:17:53 51°14.659 2°51.928 90.8 7.9 94 9.2
2009-05-20 14:18:53 51°14.654 2°52.138 88.3 7.9 91 9
2009-05-20 14:19:53 51°14.651 2°52.35 89.3 8.1 91 9.1
2009-05-20 14:20:53 51°14.643 2°52.564 91.5 8.1 95 8.8
2009-05-20 14:21:53 51°14.632 2°52.78 91.9 8.2 95 8.6
2009-05-20 14:22:53 51°14.621 2°52.996 92 8.2 95 8.4
2009-05-20 14:23:53 51°14.611 2°53.218 90.5 9 94 8.1
2009-05-20 14:24:53 51°14.599 2°53.485 91.5 10.5 95 5.6
2009-05-20 14:25:53 51°14.575 2°53.768 95.1 10.9 99 9.5
2009-05-20 14:26:53 51°14.545 2°54.05 99.4 10.7 104 9.7
2009-05-20 14:27:53 51°14.517 2°54.326 96.4 10.6 101 9.6
2009-05-20 14:28:53 51°14.474 2°54.599 102 10.7 107 9.5
2009-05-20 14:29:53 51°14.421 2°54.869 103 10.8 105 9.6
2009-05-20 14:30:53 51°14.337 2°55.131 127.8 11.1 130 9.6
2009-05-20 14:31:53 51°14.231 2°55.303 140.2 6.8 141 9.7
2009-05-20 14:32:53 51°14.142 2°55.391 151.8 7 153 9.7
2009-05-20 14:33:53 51°14.024 2°55.476 153.9 8.5 153 9.4
2009-05-20 14:34:56 51°13.889 2°55.575 156.2 8 156 9.7
2009-05-20 14:35:57 51°13.784 2°55.658 138.5 6.1 142 -999
2009-05-20 14:36:57 51°13.723 2°55.763 128.6 5.1 129 -999
2009-05-20 14:37:57 51°13.681 2°55.868 117.4 4.2 118 -999
2009-05-20 14:38:57 51°13.665 2°55.945 112.7 1.8 108 -999